sensor_id;sensor_type;location;lat;lon;timestamp;pressure;altitude;pressure_sealevel;temperature;humidity
48892;BME280;50130;52.150;5.236;2023-03-14T00:01:27;98668.0;;;11.98;93.89
48892;BME280;50130;52.150;5.236;2023-03-14T00:03:03;98660.0;;;11.71;95.36
48892;BME280;50130;52.150;5.236;2023-03-14T00:04:39;98661.0;;;11.65;95.42
48892;BME280;50130;52.150;5.236;2023-03-14T00:07:53;98660.0;;;11.69;95.07
48892;BME280;50130;52.150;5.236;2023-03-14T00:09:29;98655.0;;;11.61;95.62
48892;BME280;50130;52.150;5.236;2023-03-14T00:11:06;98655.0;;;11.75;95.23
48892;BME280;50130;52.150;5.236;2023-03-14T00:12:44;98650.0;;;11.8;94.93
48892;BME280;50130;52.150;5.236;2023-03-14T00:16:01;98653.0;;;11.72;95.24
48892;BME280;50130;52.150;5.236;2023-03-14T00:17:39;98656.0;;;11.8;94.56
48892;BME280;50130;52.150;5.236;2023-03-14T00:19:14;98658.0;;;11.71;94.89
48892;BME280;50130;52.150;5.236;2023-03-14T00:22:29;98661.0;;;11.72;94.82
48892;BME280;50130;52.150;5.236;2023-03-14T00:24:06;98653.0;;;11.73;94.88
48892;BME280;50130;52.150;5.236;2023-03-14T00:25:43;98649.0;;;11.7;94.66
48892;BME280;50130;52.150;5.236;2023-03-14T00:28:55;98651.0;;;11.77;94.01
48892;BME280;50130;52.150;5.236;2023-03-14T00:30:31;98651.0;;;11.68;93.59
48892;BME280;50130;52.150;5.236;2023-03-14T00:32:07;98651.0;;;11.67;93.67
48892;BME280;50130;52.150;5.236;2023-03-14T00:33:44;98655.0;;;11.74;94.25
48892;BME280;50130;52.150;5.236;2023-03-14T00:36:57;98661.0;;;11.46;95.26
48892;BME280;50130;52.150;5.236;2023-03-14T00:38:33;98666.0;;;11.56;94.77
48892;BME280;50130;52.150;5.236;2023-03-14T00:40:10;98666.0;;;11.49;94.76
48892;BME280;50130;52.150;5.236;2023-03-14T00:43:23;98658.0;;;11.44;94.01
48892;BME280;50130;52.150;5.236;2023-03-14T00:44:59;98661.0;;;11.47;93.67
48892;BME280;50130;52.150;5.236;2023-03-14T00:46:35;98663.0;;;11.38;92.83
48892;BME280;50130;52.150;5.236;2023-03-14T00:49:48;98656.0;;;11.51;92.4
48892;BME280;50130;52.150;5.236;2023-03-14T00:51:24;98668.0;;;11.41;92.55
48892;BME280;50130;52.150;5.236;2023-03-14T00:53:00;98667.0;;;11.34;91.43
48892;BME280;50130;52.150;5.236;2023-03-14T00:54:36;98663.0;;;11.41;91.26
48892;BME280;50130;52.150;5.236;2023-03-14T00:57:49;98655.0;;;11.4;91.06
48892;BME280;50130;52.150;5.236;2023-03-14T00:59:25;98650.0;;;11.52;91.17
48892;BME280;50130;52.150;5.236;2023-03-14T01:01:05;98662.0;;;11.54;90.99
48892;BME280;50130;52.150;5.236;2023-03-14T01:04:20;98664.0;;;11.51;91.34
48892;BME280;50130;52.150;5.236;2023-03-14T01:06:06;98666.0;;;11.49;91.62
48892;BME280;50130;52.150;5.236;2023-03-14T01:07:42;98666.0;;;11.54;92.49
48892;BME280;50130;52.150;5.236;2023-03-14T01:09:18;98668.0;;;11.48;93.36
48892;BME280;50130;52.150;5.236;2023-03-14T01:12:30;98668.0;;;11.43;92.94
48892;BME280;50130;52.150;5.236;2023-03-14T01:14:06;98672.0;;;11.46;93.21
48892;BME280;50130;52.150;5.236;2023-03-14T01:15:43;98672.0;;;11.61;92.62
48892;BME280;50130;52.150;5.236;2023-03-14T01:18:55;98666.0;;;11.49;93.02
48892;BME280;50130;52.150;5.236;2023-03-14T01:20:31;98666.0;;;11.36;93.52
48892;BME280;50130;52.150;5.236;2023-03-14T01:22:08;98662.0;;;11.42;93.47
48892;BME280;50130;52.150;5.236;2023-03-14T01:25:22;98671.0;;;11.34;94.12
48892;BME280;50130;52.150;5.236;2023-03-14T01:26:58;98675.0;;;11.4;94.33
48892;BME280;50130;52.150;5.236;2023-03-14T01:28:34;98674.0;;;11.28;95.58
48892;BME280;50130;52.150;5.236;2023-03-14T01:30:12;98676.0;;;11.38;95.24
48892;BME280;50130;52.150;5.236;2023-03-14T01:33:25;98667.0;;;11.25;95.71
48892;BME280;50130;52.150;5.236;2023-03-14T01:35:02;98670.0;;;11.19;96.59
48892;BME280;50130;52.150;5.236;2023-03-14T01:36:38;98665.0;;;11.12;97.16
48892;BME280;50130;52.150;5.236;2023-03-14T01:39:50;98665.0;;;11.27;96.57
48892;BME280;50130;52.150;5.236;2023-03-14T01:41:26;98663.0;;;11.16;96.74
48892;BME280;50130;52.150;5.236;2023-03-14T01:43:13;98658.0;;;11.15;96.63
48892;BME280;50130;52.150;5.236;2023-03-14T01:44:52;98658.0;;;11.14;96.55
48892;BME280;50130;52.150;5.236;2023-03-14T01:48:12;98646.0;;;11.23;96.04
48892;BME280;50130;52.150;5.236;2023-03-14T01:49:51;98662.0;;;11.17;96.16
48892;BME280;50130;52.150;5.236;2023-03-14T02:08:14;98634.0;;;11.3;93.62
48892;BME280;50130;52.150;5.236;2023-03-14T02:09:54;98624.0;;;11.3;93.69
48892;BME280;50130;52.150;5.236;2023-03-14T02:13:10;98625.0;;;11.35;93.13
48892;BME280;50130;52.150;5.236;2023-03-14T02:14:47;98624.0;;;11.42;92.53
48892;BME280;50130;52.150;5.236;2023-03-14T02:16:24;98622.0;;;11.32;93.71
48892;BME280;50130;52.150;5.236;2023-03-14T02:19:53;98627.0;;;11.24;93.22
48892;BME280;50130;52.150;5.236;2023-03-14T02:21:41;98630.0;;;11.28;92.92
48892;BME280;50130;52.150;5.236;2023-03-14T02:23:30;98619.0;;;11.26;93.18
48892;BME280;50130;52.150;5.236;2023-03-14T02:25:14;98616.0;;;11.33;92.76
48892;BME280;50130;52.150;5.236;2023-03-14T02:27:09;98615.0;;;11.3;92.6
48892;BME280;50130;52.150;5.236;2023-03-14T02:29:01;98617.0;;;11.36;92.61
48892;BME280;50130;52.150;5.236;2023-03-14T02:33:55;98605.0;;;11.33;92.28
48892;BME280;50130;52.150;5.236;2023-03-14T02:35:35;98609.0;;;11.29;92.66
48892;BME280;50130;52.150;5.236;2023-03-14T02:37:17;98618.0;;;11.3;93.14
48892;BME280;50130;52.150;5.236;2023-03-14T02:40:42;98610.0;;;11.29;92.87
48892;BME280;50130;52.150;5.236;2023-03-14T02:42:20;98610.0;;;11.19;93.7
48892;BME280;50130;52.150;5.236;2023-03-14T02:43:57;98613.0;;;11.22;93.86
48892;BME280;50130;52.150;5.236;2023-03-14T02:45:39;98614.0;;;11.2;94.06
48892;BME280;50130;52.150;5.236;2023-03-14T02:49:01;98614.0;;;11.18;94.25
48892;BME280;50130;52.150;5.236;2023-03-14T02:50:41;98610.0;;;11.13;94.22
48892;BME280;50130;52.150;5.236;2023-03-14T02:52:17;98607.0;;;11.1;93.81
48892;BME280;50130;52.150;5.236;2023-03-14T02:53:53;98603.0;;;11.18;93.84
48892;BME280;50130;52.150;5.236;2023-03-14T02:57:05;98605.0;;;11.15;93.7
48892;BME280;50130;52.150;5.236;2023-03-14T02:58:41;98595.0;;;11.12;93.69
48892;BME280;50130;52.150;5.236;2023-03-14T03:00:18;98595.0;;;11.29;93.36
48892;BME280;50130;52.150;5.236;2023-03-14T03:03:31;98595.0;;;11.33;93.02
48892;BME280;50130;52.150;5.236;2023-03-14T03:05:07;98591.0;;;11.38;92.65
48892;BME280;50130;52.150;5.236;2023-03-14T03:06:43;98597.0;;;11.39;92.41
48892;BME280;50130;52.150;5.236;2023-03-14T03:09:57;98599.0;;;11.33;92.51
48892;BME280;50130;52.150;5.236;2023-03-14T03:11:33;98595.0;;;11.26;92.44
48892;BME280;50130;52.150;5.236;2023-03-14T03:13:10;98592.0;;;11.27;92.87
48892;BME280;50130;52.150;5.236;2023-03-14T03:14:46;98594.0;;;11.29;92.8
48892;BME280;50130;52.150;5.236;2023-03-14T03:17:58;98599.0;;;11.41;92.49
48892;BME280;50130;52.150;5.236;2023-03-14T03:19:34;98593.0;;;11.38;92.5
48892;BME280;50130;52.150;5.236;2023-03-14T03:21:11;98587.0;;;11.4;92.55
48892;BME280;50130;52.150;5.236;2023-03-14T03:24:23;98585.0;;;11.28;92.96
48892;BME280;50130;52.150;5.236;2023-03-14T03:26:00;98589.0;;;11.33;92.98
48892;BME280;50130;52.150;5.236;2023-03-14T03:27:37;98584.0;;;11.32;93.1
48892;BME280;50130;52.150;5.236;2023-03-14T03:30:50;98580.0;;;11.3;93.13
48892;BME280;50130;52.150;5.236;2023-03-14T03:32:26;98581.0;;;11.3;93.02
48892;BME280;50130;52.150;5.236;2023-03-14T03:34:03;98571.0;;;11.35;93.0
48892;BME280;50130;52.150;5.236;2023-03-14T03:35:44;98572.0;;;11.38;92.77
48892;BME280;50130;52.150;5.236;2023-03-14T03:40:32;98572.0;;;11.41;91.8
48892;BME280;50130;52.150;5.236;2023-03-14T03:42:09;98575.0;;;11.41;91.98
48892;BME280;50130;52.150;5.236;2023-03-14T03:45:21;98573.0;;;11.48;91.87
48892;BME280;50130;52.150;5.236;2023-03-14T03:46:57;98571.0;;;11.51;91.55
48892;BME280;50130;52.150;5.236;2023-03-14T03:48:33;98574.0;;;11.36;91.44
48892;BME280;50130;52.150;5.236;2023-03-14T03:51:46;98569.0;;;11.43;91.51
48892;BME280;50130;52.150;5.236;2023-03-14T03:53:22;98572.0;;;11.38;91.76
48892;BME280;50130;52.150;5.236;2023-03-14T03:54:59;98567.0;;;11.44;91.64
48892;BME280;50130;52.150;5.236;2023-03-14T03:56:35;98569.0;;;11.42;91.33
48892;BME280;50130;52.150;5.236;2023-03-14T03:59:47;98556.0;;;11.36;91.61
48892;BME280;50130;52.150;5.236;2023-03-14T04:01:23;98572.0;;;11.41;91.47
48892;BME280;50130;52.150;5.236;2023-03-14T04:02:59;98563.0;;;11.49;90.44
48892;BME280;50130;52.150;5.236;2023-03-14T04:06:13;98560.0;;;11.39;90.97
48892;BME280;50130;52.150;5.236;2023-03-14T04:07:49;98567.0;;;11.44;90.49
48892;BME280;50130;52.150;5.236;2023-03-14T04:09:25;98566.0;;;11.49;90.5
48892;BME280;50130;52.150;5.236;2023-03-14T04:12:39;98563.0;;;11.52;90.22
48892;BME280;50130;52.150;5.236;2023-03-14T04:14:16;98565.0;;;11.57;89.9
48892;BME280;50130;52.150;5.236;2023-03-14T04:15:52;98570.0;;;11.54;90.17
48892;BME280;50130;52.150;5.236;2023-03-14T04:17:28;98578.0;;;11.46;89.64
48892;BME280;50130;52.150;5.236;2023-03-14T04:20:40;98571.0;;;11.5;90.11
48892;BME280;50130;52.150;5.236;2023-03-14T04:22:17;98576.0;;;11.54;89.38
48892;BME280;50130;52.150;5.236;2023-03-14T04:23:53;98568.0;;;11.52;89.62
48892;BME280;50130;52.150;5.236;2023-03-14T04:27:06;98565.0;;;11.5;89.52
48892;BME280;50130;52.150;5.236;2023-03-14T04:28:42;98570.0;;;11.6;89.26
48892;BME280;50130;52.150;5.236;2023-03-14T04:30:19;98582.0;;;11.62;88.83
48892;BME280;50130;52.150;5.236;2023-03-14T04:33:32;98575.0;;;11.52;89.61
48892;BME280;50130;52.150;5.236;2023-03-14T04:35:08;98577.0;;;11.61;89.23
48892;BME280;50130;52.150;5.236;2023-03-14T04:36:44;98577.0;;;11.47;89.67
48892;BME280;50130;52.150;5.236;2023-03-14T04:39:56;98570.0;;;11.57;89.45
48892;BME280;50130;52.150;5.236;2023-03-14T04:41:32;98557.0;;;11.59;89.11
48892;BME280;50130;52.150;5.236;2023-03-14T04:43:09;98562.0;;;11.62;89.39
48892;BME280;50130;52.150;5.236;2023-03-14T04:44:46;98559.0;;;11.66;89.1
48892;BME280;50130;52.150;5.236;2023-03-14T04:47:59;98560.0;;;11.71;89.33
48892;BME280;50130;52.150;5.236;2023-03-14T04:49:35;98555.0;;;11.75;89.31
48892;BME280;50130;52.150;5.236;2023-03-14T04:51:11;98560.0;;;11.76;89.22
48892;BME280;50130;52.150;5.236;2023-03-14T04:54:23;98559.0;;;11.7;89.61
48892;BME280;50130;52.150;5.236;2023-03-14T04:55:59;98552.0;;;11.58;90.51
48892;BME280;50130;52.150;5.236;2023-03-14T04:57:36;98559.0;;;11.51;92.15
48892;BME280;50130;52.150;5.236;2023-03-14T05:00:49;98555.0;;;11.49;93.27
48892;BME280;50130;52.150;5.236;2023-03-14T05:02:26;98551.0;;;11.42;94.49
48892;BME280;50130;52.150;5.236;2023-03-14T05:04:02;98558.0;;;11.31;95.41
48892;BME280;50130;52.150;5.236;2023-03-14T05:05:38;98552.0;;;11.19;96.0
48892;BME280;50130;52.150;5.236;2023-03-14T05:08:50;98549.0;;;11.23;96.34
48892;BME280;50130;52.150;5.236;2023-03-14T05:10:26;98541.0;;;11.26;96.67
48892;BME280;50130;52.150;5.236;2023-03-14T05:12:03;98548.0;;;11.15;97.26
48892;BME280;50130;52.150;5.236;2023-03-14T05:15:15;98551.0;;;11.2;97.42
48892;BME280;50130;52.150;5.236;2023-03-14T05:16:51;98544.0;;;11.18;97.48
48892;BME280;50130;52.150;5.236;2023-03-14T05:18:27;98537.0;;;11.17;97.69
48892;BME280;50130;52.150;5.236;2023-03-14T05:21:40;98540.0;;;11.15;98.2
48892;BME280;50130;52.150;5.236;2023-03-14T05:23:16;98546.0;;;11.27;97.65
48892;BME280;50130;52.150;5.236;2023-03-14T05:24:53;98536.0;;;11.25;97.96
48892;BME280;50130;52.150;5.236;2023-03-14T05:26:29;98534.0;;;11.17;98.17
48892;BME280;50130;52.150;5.236;2023-03-14T05:29:42;98542.0;;;11.14;98.45
48892;BME280;50130;52.150;5.236;2023-03-14T05:31:18;98534.0;;;11.13;98.76
48892;BME280;50130;52.150;5.236;2023-03-14T05:32:54;98536.0;;;11.13;98.92
48892;BME280;50130;52.150;5.236;2023-03-14T05:36:07;98531.0;;;11.22;98.8
48892;BME280;50130;52.150;5.236;2023-03-14T05:37:44;98531.0;;;11.1;99.32
48892;BME280;50130;52.150;5.236;2023-03-14T05:39:20;98519.0;;;11.05;99.84
48892;BME280;50130;52.150;5.236;2023-03-14T05:42:33;98513.0;;;11.09;99.74
48892;BME280;50130;52.150;5.236;2023-03-14T05:44:09;98517.0;;;11.05;99.82
48892;BME280;50130;52.150;5.236;2023-03-14T05:45:45;98523.0;;;10.93;100.0
48892;BME280;50130;52.150;5.236;2023-03-14T05:48:58;98523.0;;;10.99;100.0
48892;BME280;50130;52.150;5.236;2023-03-14T05:50:34;98525.0;;;11.07;99.98
48892;BME280;50130;52.150;5.236;2023-03-14T05:52:12;98525.0;;;10.92;100.0
48892;BME280;50130;52.150;5.236;2023-03-14T05:53:48;98527.0;;;10.98;100.0
48892;BME280;50130;52.150;5.236;2023-03-14T05:57:01;98533.0;;;11.0;100.0
48892;BME280;50130;52.150;5.236;2023-03-14T05:58:37;98539.0;;;11.07;100.0
48892;BME280;50130;52.150;5.236;2023-03-14T06:00:15;98528.0;;;10.93;100.0
48892;BME280;50130;52.150;5.236;2023-03-14T06:03:26;98523.0;;;10.89;100.0
48892;BME280;50130;52.150;5.236;2023-03-14T06:05:03;98530.0;;;10.97;100.0
48892;BME280;50130;52.150;5.236;2023-03-14T06:06:41;98537.0;;;10.96;100.0
48892;BME280;50130;52.150;5.236;2023-03-14T06:09:53;98537.0;;;11.01;100.0
48892;BME280;50130;52.150;5.236;2023-03-14T06:11:29;98536.0;;;11.01;100.0
48892;BME280;50130;52.150;5.236;2023-03-14T06:13:05;98545.0;;;11.08;100.0
48892;BME280;50130;52.150;5.236;2023-03-14T06:14:41;98548.0;;;10.99;100.0
48892;BME280;50130;52.150;5.236;2023-03-14T06:17:54;98546.0;;;11.0;100.0
48892;BME280;50130;52.150;5.236;2023-03-14T06:19:31;98559.0;;;11.05;100.0
48892;BME280;50130;52.150;5.236;2023-03-14T06:21:07;98580.0;;;10.96;100.0
48892;BME280;50130;52.150;5.236;2023-03-14T06:24:20;98589.0;;;10.94;100.0
48892;BME280;50130;52.150;5.236;2023-03-14T06:25:56;98595.0;;;10.92;100.0
48892;BME280;50130;52.150;5.236;2023-03-14T06:27:33;98609.0;;;10.73;100.0
48892;BME280;50130;52.150;5.236;2023-03-14T06:30:45;98618.0;;;10.64;100.0
48892;BME280;50130;52.150;5.236;2023-03-14T06:32:22;98638.0;;;10.53;100.0
48892;BME280;50130;52.150;5.236;2023-03-14T06:33:58;98636.0;;;10.31;99.39
48892;BME280;50130;52.150;5.236;2023-03-14T06:35:35;98640.0;;;10.22;99.37
48892;BME280;50130;52.150;5.236;2023-03-14T06:38:47;98652.0;;;10.1;99.23
48892;BME280;50130;52.150;5.236;2023-03-14T06:40:23;98664.0;;;10.03;98.44
48892;BME280;50130;52.150;5.236;2023-03-14T06:41:59;98666.0;;;9.93;98.33
48892;BME280;50130;52.150;5.236;2023-03-14T06:45:12;98673.0;;;10.03;98.02
48892;BME280;50130;52.150;5.236;2023-03-14T06:46:49;98676.0;;;10.01;97.57
48892;BME280;50130;52.150;5.236;2023-03-14T06:48:25;98681.0;;;9.98;98.21
48892;BME280;50130;52.150;5.236;2023-03-14T06:51:40;98689.0;;;10.02;98.32
48892;BME280;50130;52.150;5.236;2023-03-14T06:53:16;98692.0;;;10.18;97.56
48892;BME280;50130;52.150;5.236;2023-03-14T06:54:52;98700.0;;;10.02;98.56
48892;BME280;50130;52.150;5.236;2023-03-14T06:56:29;98699.0;;;9.9;99.14
48892;BME280;50130;52.150;5.236;2023-03-14T06:59:41;98705.0;;;9.98;99.15
48892;BME280;50130;52.150;5.236;2023-03-14T07:01:21;98712.0;;;9.94;98.94
48892;BME280;50130;52.150;5.236;2023-03-14T07:02:58;98719.0;;;9.88;99.21
48892;BME280;50130;52.150;5.236;2023-03-14T07:06:10;98722.0;;;9.78;99.06
48892;BME280;50130;52.150;5.236;2023-03-14T07:07:46;98726.0;;;9.92;99.33
48892;BME280;50130;52.150;5.236;2023-03-14T07:09:23;98736.0;;;9.76;99.31
48892;BME280;50130;52.150;5.236;2023-03-14T07:12:35;98746.0;;;9.74;99.85
48892;BME280;50130;52.150;5.236;2023-03-14T07:14:11;98746.0;;;9.82;99.69
48892;BME280;50130;52.150;5.236;2023-03-14T07:15:47;98755.0;;;9.52;100.0
48892;BME280;50130;52.150;5.236;2023-03-14T07:17:23;98761.0;;;9.58;99.9
48892;BME280;50130;52.150;5.236;2023-03-14T07:20:36;98777.0;;;9.56;99.64
48892;BME280;50130;52.150;5.236;2023-03-14T07:22:13;98783.0;;;9.56;99.73
48892;BME280;50130;52.150;5.236;2023-03-14T07:23:49;98797.0;;;9.73;99.13
48892;BME280;50130;52.150;5.236;2023-03-14T07:27:02;98817.0;;;9.49;99.38
48892;BME280;50130;52.150;5.236;2023-03-14T07:28:38;98827.0;;;9.33;99.04
48892;BME280;50130;52.150;5.236;2023-03-14T07:30:14;98832.0;;;9.22;98.92
48892;BME280;50130;52.150;5.236;2023-03-14T07:33:26;98841.0;;;9.11;98.5
48892;BME280;50130;52.150;5.236;2023-03-14T07:35:03;98853.0;;;9.07;98.42
48892;BME280;50130;52.150;5.236;2023-03-14T07:36:40;98855.0;;;8.98;98.13
48892;BME280;50130;52.150;5.236;2023-03-14T07:39:52;98858.0;;;8.89;97.74
48892;BME280;50130;52.150;5.236;2023-03-14T07:41:28;98864.0;;;8.98;98.18
48892;BME280;50130;52.150;5.236;2023-03-14T07:43:04;98880.0;;;8.92;97.88
48892;BME280;50130;52.150;5.236;2023-03-14T07:44:41;98891.0;;;8.82;97.5
48892;BME280;50130;52.150;5.236;2023-03-14T07:47:52;98900.0;;;8.9;98.45
48892;BME280;50130;52.150;5.236;2023-03-14T07:49:28;98902.0;;;8.76;98.17
48892;BME280;50130;52.150;5.236;2023-03-14T07:51:05;98905.0;;;8.64;98.32
48892;BME280;50130;52.150;5.236;2023-03-14T07:54:17;98910.0;;;8.55;98.74
48892;BME280;50130;52.150;5.236;2023-03-14T07:55:53;98919.0;;;8.66;98.56
48892;BME280;50130;52.150;5.236;2023-03-14T07:57:29;98930.0;;;8.61;98.29
48892;BME280;50130;52.150;5.236;2023-03-14T08:00:42;98941.0;;;8.61;98.56
48892;BME280;50130;52.150;5.236;2023-03-14T08:02:19;98968.0;;;8.67;99.23
48892;BME280;50130;52.150;5.236;2023-03-14T08:03:55;98989.0;;;8.32;97.94
48892;BME280;50130;52.150;5.236;2023-03-14T08:05:34;99001.0;;;8.06;97.29
48892;BME280;50130;52.150;5.236;2023-03-14T08:08:46;99015.0;;;8.15;97.96
48892;BME280;50130;52.150;5.236;2023-03-14T08:10:22;99016.0;;;7.88;97.96
48892;BME280;50130;52.150;5.236;2023-03-14T08:11:58;99025.0;;;7.52;98.52
48892;BME280;50130;52.150;5.236;2023-03-14T08:15:13;99035.0;;;7.54;99.34
48892;BME280;50130;52.150;5.236;2023-03-14T08:16:50;99050.0;;;7.62;99.66
48892;BME280;50130;52.150;5.236;2023-03-14T08:18:26;99064.0;;;7.38;99.14
48892;BME280;50130;52.150;5.236;2023-03-14T08:21:39;99069.0;;;7.43;99.82
48892;BME280;50130;52.150;5.236;2023-03-14T08:23:16;99072.0;;;7.49;99.64
48892;BME280;50130;52.150;5.236;2023-03-14T08:24:51;99089.0;;;7.44;99.7
48892;BME280;50130;52.150;5.236;2023-03-14T08:26:27;99094.0;;;7.21;99.81
48892;BME280;50130;52.150;5.236;2023-03-14T08:29:41;99105.0;;;7.25;99.35
48892;BME280;50130;52.150;5.236;2023-03-14T08:31:17;99106.0;;;7.18;99.45
48892;BME280;50130;52.150;5.236;2023-03-14T08:32:53;99115.0;;;7.15;99.59
48892;BME280;50130;52.150;5.236;2023-03-14T08:36:10;99122.0;;;7.06;99.12
48892;BME280;50130;52.150;5.236;2023-03-14T08:37:46;99134.0;;;7.08;98.87
48892;BME280;50130;52.150;5.236;2023-03-14T08:39:22;99140.0;;;7.11;98.72
48892;BME280;50130;52.150;5.236;2023-03-14T08:42:37;99149.0;;;7.16;98.59
48892;BME280;50130;52.150;5.236;2023-03-14T08:44:14;99159.0;;;7.2;98.4
48892;BME280;50130;52.150;5.236;2023-03-14T08:45:50;99170.0;;;7.31;98.67
48892;BME280;50130;52.150;5.236;2023-03-14T08:47:26;99182.0;;;7.21;97.54
48892;BME280;50130;52.150;5.236;2023-03-14T08:50:40;99194.0;;;7.37;98.73
48892;BME280;50130;52.150;5.236;2023-03-14T08:52:17;99195.0;;;7.47;99.17
48892;BME280;50130;52.150;5.236;2023-03-14T08:53:52;99207.0;;;7.58;98.43
48892;BME280;50130;52.150;5.236;2023-03-14T08:57:05;99218.0;;;7.46;96.73
48892;BME280;50130;52.150;5.236;2023-03-14T08:58:41;99221.0;;;7.63;97.28
48892;BME280;50130;52.150;5.236;2023-03-14T09:00:19;99231.0;;;7.75;97.56
48892;BME280;50130;52.150;5.236;2023-03-14T09:03:31;99233.0;;;7.73;95.85
48892;BME280;50130;52.150;5.236;2023-03-14T09:05:08;99243.0;;;7.57;95.06
48892;BME280;50130;52.150;5.236;2023-03-14T09:06:44;99252.0;;;7.52;95.63
48892;BME280;50130;52.150;5.236;2023-03-14T09:08:21;99258.0;;;7.51;94.54
48892;BME280;50130;52.150;5.236;2023-03-14T09:11:33;99270.0;;;7.52;95.54
48892;BME280;50130;52.150;5.236;2023-03-14T09:13:09;99277.0;;;7.44;93.43
48892;BME280;50130;52.150;5.236;2023-03-14T09:14:45;99287.0;;;7.6;94.39
48892;BME280;50130;52.150;5.236;2023-03-14T09:17:58;99295.0;;;7.61;93.79
48892;BME280;50130;52.150;5.236;2023-03-14T09:19:34;99303.0;;;7.71;93.73
48892;BME280;50130;52.150;5.236;2023-03-14T09:21:10;99310.0;;;7.77;93.0
48892;BME280;50130;52.150;5.236;2023-03-14T09:24:22;99324.0;;;7.83;92.8
48892;BME280;50130;52.150;5.236;2023-03-14T09:25:58;99336.0;;;7.77;92.03
48892;BME280;50130;52.150;5.236;2023-03-14T09:27:35;99349.0;;;7.69;93.88
48892;BME280;50130;52.150;5.236;2023-03-14T09:29:11;99343.0;;;7.53;92.0
48892;BME280;50130;52.150;5.236;2023-03-14T09:32:23;99355.0;;;7.54;91.83
48892;BME280;50130;52.150;5.236;2023-03-14T09:33:59;99364.0;;;7.57;92.6
48892;BME280;50130;52.150;5.236;2023-03-14T09:35:35;99368.0;;;7.57;91.44
48892;BME280;50130;52.150;5.236;2023-03-14T09:40:27;99380.0;;;7.54;91.6
48892;BME280;50130;52.150;5.236;2023-03-14T09:42:13;99389.0;;;7.67;91.9
48892;BME280;50130;52.150;5.236;2023-03-14T09:43:55;99399.0;;;7.67;91.67
48892;BME280;50130;52.150;5.236;2023-03-14T09:47:18;99406.0;;;7.68;90.59
48892;BME280;50130;52.150;5.236;2023-03-14T09:48:55;99415.0;;;7.86;91.02
48892;BME280;50130;52.150;5.236;2023-03-14T09:50:36;99424.0;;;7.88;91.38
48892;BME280;50130;52.150;5.236;2023-03-14T09:52:15;99442.0;;;7.82;90.0
48892;BME280;50130;52.150;5.236;2023-03-14T09:55:31;99436.0;;;7.81;90.58
48892;BME280;50130;52.150;5.236;2023-03-14T09:57:12;99440.0;;;7.76;89.93
48892;BME280;50130;52.150;5.236;2023-03-14T09:58:52;99450.0;;;7.84;90.17
48892;BME280;50130;52.150;5.236;2023-03-14T10:02:14;99453.0;;;8.02;89.97
48892;BME280;50130;52.150;5.236;2023-03-14T10:03:54;99466.0;;;7.97;90.53
48892;BME280;50130;52.150;5.236;2023-03-14T10:05:32;99482.0;;;7.8;90.24
48892;BME280;50130;52.150;5.236;2023-03-14T10:07:11;99491.0;;;7.96;90.95
48892;BME280;50130;52.150;5.236;2023-03-14T10:10:27;99501.0;;;7.8;92.72
48892;BME280;50130;52.150;5.236;2023-03-14T10:12:03;99517.0;;;7.7;92.69
48892;BME280;50130;52.150;5.236;2023-03-14T10:13:48;99531.0;;;7.46;93.61
48892;BME280;50130;52.150;5.236;2023-03-14T10:15:29;99530.0;;;7.27;93.06
48892;BME280;50130;52.150;5.236;2023-03-14T10:18:46;99535.0;;;7.16;93.55
48892;BME280;50130;52.150;5.236;2023-03-14T10:20:28;99539.0;;;7.45;93.15
48892;BME280;50130;52.150;5.236;2023-03-14T10:22:10;99547.0;;;7.44;91.94
48892;BME280;50130;52.150;5.236;2023-03-14T10:23:50;99553.0;;;7.29;91.65
48892;BME280;50130;52.150;5.236;2023-03-14T10:27:17;99572.0;;;7.39;92.66
48892;BME280;50130;52.150;5.236;2023-03-14T10:29:03;99567.0;;;7.4;92.82
48892;BME280;50130;52.150;5.236;2023-03-14T10:30:43;99578.0;;;7.48;95.24
48892;BME280;50130;52.150;5.236;2023-03-14T10:32:20;99575.0;;;7.62;95.2
48892;BME280;50130;52.150;5.236;2023-03-14T10:34:04;99581.0;;;7.77;94.31
48892;BME280;50130;52.150;5.236;2023-03-14T10:37:21;99589.0;;;7.69;93.91
48892;BME280;50130;52.150;5.236;2023-03-14T10:38:57;99597.0;;;7.9;93.32
48892;BME280;50130;52.150;5.236;2023-03-14T10:40:53;99611.0;;;7.72;90.44
48892;BME280;50130;52.150;5.236;2023-03-14T10:42:31;99627.0;;;7.89;93.71
48892;BME280;50130;52.150;5.236;2023-03-14T10:45:52;99650.0;;;7.87;93.72
48892;BME280;50130;52.150;5.236;2023-03-14T10:47:32;99655.0;;;7.62;89.48
48892;BME280;50130;52.150;5.236;2023-03-14T10:49:25;99659.0;;;7.67;89.4
48892;BME280;50130;52.150;5.236;2023-03-14T10:51:04;99674.0;;;7.63;88.35
48892;BME280;50130;52.150;5.236;2023-03-14T10:54:24;99687.0;;;7.54;86.95
48892;BME280;50130;52.150;5.236;2023-03-14T10:56:05;99691.0;;;7.67;87.75
48892;BME280;50130;52.150;5.236;2023-03-14T10:57:43;99688.0;;;7.7;90.47
48892;BME280;50130;52.150;5.236;2023-03-14T10:59:19;99696.0;;;7.58;87.15
48892;BME280;50130;52.150;5.236;2023-03-14T11:02:53;99707.0;;;7.79;87.39
48892;BME280;50130;52.150;5.236;2023-03-14T11:04:54;99720.0;;;7.9;86.71
48892;BME280;50130;52.150;5.236;2023-03-14T11:06:40;99733.0;;;7.76;82.36
48892;BME280;50130;52.150;5.236;2023-03-14T11:08:24;99730.0;;;7.81;82.43
48892;BME280;50130;52.150;5.236;2023-03-14T11:10:10;99732.0;;;7.84;84.65
48892;BME280;50130;52.150;5.236;2023-03-14T11:11:53;99746.0;;;7.96;83.53
48892;BME280;50130;52.150;5.236;2023-03-14T11:15:31;99755.0;;;7.99;82.86
48892;BME280;50130;52.150;5.236;2023-03-14T11:17:15;99755.0;;;8.24;82.9
48892;BME280;50130;52.150;5.236;2023-03-14T11:19:03;99766.0;;;8.41;80.62
48892;BME280;50130;52.150;5.236;2023-03-14T11:21:08;99771.0;;;8.52;78.67
48892;BME280;50130;52.150;5.236;2023-03-14T11:22:54;99783.0;;;8.6;80.05
48892;BME280;50130;52.150;5.236;2023-03-14T11:24:45;99789.0;;;8.67;75.39
48892;BME280;50130;52.150;5.236;2023-03-14T11:26:33;99795.0;;;8.83;75.75
48892;BME280;50130;52.150;5.236;2023-03-14T11:30:05;99807.0;;;8.8;76.72
48892;BME280;50130;52.150;5.236;2023-03-14T11:31:52;99815.0;;;8.93;77.94
48892;BME280;50130;52.150;5.236;2023-03-14T11:33:36;99825.0;;;8.96;72.64
48892;BME280;50130;52.150;5.236;2023-03-14T11:35:30;99826.0;;;9.02;73.83
48892;BME280;50130;52.150;5.236;2023-03-14T11:37:14;99831.0;;;9.09;70.63
48892;BME280;50130;52.150;5.236;2023-03-14T11:38:57;99838.0;;;8.93;69.09
48892;BME280;50130;52.150;5.236;2023-03-14T11:42:13;99850.0;;;8.98;71.89